sensor_id;sensor_type;location;lat;lon;timestamp;pressure;altitude;pressure_sealevel;temperature;humidity
37892;BME280;45797;47.466;9.486;2024-02-21T00:04:05;96861.66;;;5.83;78.10
37892;BME280;45797;47.466;9.486;2024-02-21T00:09:35;96856.66;;;5.78;78.43
37892;BME280;45797;47.466;9.486;2024-02-21T00:14:55;96863.56;;;5.78;78.39
37892;BME280;45797;47.466;9.486;2024-02-21T00:20:17;96857.50;;;5.79;77.41
37892;BME280;45797;47.466;9.486;2024-02-21T00:25:47;96866.22;;;5.76;78.27
37892;BME280;45797;47.466;9.486;2024-02-21T00:31:10;96859.28;;;5.77;77.99
37892;BME280;45797;47.466;9.486;2024-02-21T00:36:33;96858.50;;;5.74;78.54
37892;BME280;45797;47.466;9.486;2024-02-21T00:41:54;96860.31;;;5.72;78.57
37892;BME280;45797;47.466;9.486;2024-02-21T00:47:20;96859.59;;;5.67;78.69
37892;BME280;45797;47.466;9.486;2024-02-21T00:52:42;96848.38;;;5.67;78.45
37892;BME280;45797;47.466;9.486;2024-02-21T00:58:03;96841.53;;;5.64;78.77
37892;BME280;45797;47.466;9.486;2024-02-21T01:03:26;96833.72;;;5.64;78.31
37892;BME280;45797;47.466;9.486;2024-02-21T01:08:47;96835.50;;;5.64;79.02
37892;BME280;45797;47.466;9.486;2024-02-21T01:14:10;96838.16;;;5.62;78.89
37892;BME280;45797;47.466;9.486;2024-02-21T01:19:33;96828.72;;;5.60;78.56
37892;BME280;45797;47.466;9.486;2024-02-21T01:25:03;96815.81;;;5.57;79.14
37892;BME280;45797;47.466;9.486;2024-02-21T01:30:29;96813.28;;;5.55;79.17
37892;BME280;45797;47.466;9.486;2024-02-21T01:35:52;96813.28;;;5.55;78.82
37892;BME280;45797;47.466;9.486;2024-02-21T01:41:14;96811.66;;;5.53;79.17
37892;BME280;45797;47.466;9.486;2024-02-21T01:46:36;96809.09;;;5.51;79.19
37892;BME280;45797;47.466;9.486;2024-02-21T01:51:57;96806.66;;;5.47;79.33
37892;BME280;45797;47.466;9.486;2024-02-21T01:57:19;96807.63;;;5.44;78.52
37892;BME280;45797;47.466;9.486;2024-02-21T02:02:42;96798.13;;;5.43;78.97
37892;BME280;45797;47.466;9.486;2024-02-21T02:08:03;96797.34;;;5.41;78.95
37892;BME280;45797;47.466;9.486;2024-02-21T02:13:40;96793.94;;;5.39;79.32
37892;BME280;45797;47.466;9.486;2024-02-21T02:19:02;96797.34;;;5.41;79.19
37892;BME280;45797;47.466;9.486;2024-02-21T02:24:24;96789.56;;;5.41;79.05
37892;BME280;45797;47.466;9.486;2024-02-21T02:29:46;96771.31;;;5.42;79.31
37892;BME280;45797;47.466;9.486;2024-02-21T02:35:07;96752.28;;;5.42;79.38
37892;BME280;45797;47.466;9.486;2024-02-21T02:40:28;96732.34;;;5.42;79.77
37892;BME280;45797;47.466;9.486;2024-02-21T02:45:50;96721.84;;;5.45;79.13
37892;BME280;45797;47.466;9.486;2024-02-21T02:51:19;96716.53;;;5.49;79.44
37892;BME280;45797;47.466;9.486;2024-02-21T02:56:39;96717.34;;;5.51;79.18
37892;BME280;45797;47.466;9.486;2024-02-21T03:02:05;96718.19;;;5.51;79.09
37892;BME280;45797;47.466;9.486;2024-02-21T03:07:29;96718.13;;;5.53;79.51
37892;BME280;45797;47.466;9.486;2024-02-21T03:12:57;96707.66;;;5.54;78.71
37892;BME280;45797;47.466;9.486;2024-02-21T03:18:31;96705.06;;;5.54;79.46
37892;BME280;45797;47.466;9.486;2024-02-21T03:23:52;96703.31;;;5.55;79.77
37892;BME280;45797;47.466;9.486;2024-02-21T03:29:15;96706.69;;;5.57;79.07
37892;BME280;45797;47.466;9.486;2024-02-21T03:34:38;96710.94;;;5.59;79.57
37892;BME280;45797;47.466;9.486;2024-02-21T03:40:08;96698.56;;;5.66;79.00
37892;BME280;45797;47.466;9.486;2024-02-21T03:45:29;96683.53;;;5.74;79.34
37892;BME280;45797;47.466;9.486;2024-02-21T03:50:51;96664.25;;;5.80;78.77
37892;BME280;45797;47.466;9.486;2024-02-21T03:56:12;96652.81;;;5.84;79.01
37892;BME280;45797;47.466;9.486;2024-02-21T04:01:39;96647.50;;;5.87;79.01
37892;BME280;45797;47.466;9.486;2024-02-21T04:07:18;96634.50;;;5.87;78.79
37892;BME280;45797;47.466;9.486;2024-02-21T04:12:51;96642.34;;;5.85;78.83
37892;BME280;45797;47.466;9.486;2024-02-21T04:18:18;96638.91;;;5.85;79.21
37892;BME280;45797;47.466;9.486;2024-02-21T04:23:46;96641.41;;;5.88;79.50
37892;BME280;45797;47.466;9.486;2024-02-21T04:29:07;96628.34;;;5.89;79.08
37892;BME280;45797;47.466;9.486;2024-02-21T04:34:30;96605.03;;;5.88;79.41
37892;BME280;45797;47.466;9.486;2024-02-21T04:39:51;96597.53;;;5.80;79.54
37892;BME280;45797;47.466;9.486;2024-02-21T04:45:14;96577.03;;;5.72;79.57
37892;BME280;45797;47.466;9.486;2024-02-21T04:50:35;96558.97;;;5.69;79.83
37892;BME280;45797;47.466;9.486;2024-02-21T04:55:55;96552.13;;;5.67;79.65
37892;BME280;45797;47.466;9.486;2024-02-21T05:01:16;96553.94;;;5.65;79.92
37892;BME280;45797;47.466;9.486;2024-02-21T05:06:42;96550.50;;;5.64;80.18
37892;BME280;45797;47.466;9.486;2024-02-21T05:12:04;96556.63;;;5.63;79.96
37892;BME280;45797;47.466;9.486;2024-02-21T05:17:27;96558.38;;;5.63;79.61
37892;BME280;45797;47.466;9.486;2024-02-21T05:22:51;96552.97;;;5.67;80.02
37892;BME280;45797;47.466;9.486;2024-02-21T05:28:14;96538.00;;;5.74;80.42
37892;BME280;45797;47.466;9.486;2024-02-21T05:33:34;96537.00;;;5.77;79.84
37892;BME280;45797;47.466;9.486;2024-02-21T05:38:57;96525.06;;;5.72;79.35
37892;BME280;45797;47.466;9.486;2024-02-21T05:44:19;96516.66;;;5.66;79.88
37892;BME280;45797;47.466;9.486;2024-02-21T05:49:39;96515.97;;;5.62;79.64
37892;BME280;45797;47.466;9.486;2024-02-21T05:55:03;96516.09;;;5.59;79.84
37892;BME280;45797;47.466;9.486;2024-02-21T06:00:25;96527.56;;;5.54;80.15
37892;BME280;45797;47.466;9.486;2024-02-21T06:05:45;96528.34;;;5.56;80.20
37892;BME280;45797;47.466;9.486;2024-02-21T06:11:17;96519.47;;;5.61;79.98
37892;BME280;45797;47.466;9.486;2024-02-21T06:16:46;96519.94;;;5.71;79.80
37892;BME280;45797;47.466;9.486;2024-02-21T06:22:07;96525.47;;;5.84;79.44
37892;BME280;45797;47.466;9.486;2024-02-21T06:27:29;96525.97;;;5.93;79.78
37892;BME280;45797;47.466;9.486;2024-02-21T06:32:49;96510.81;;;6.03;79.31
37892;BME280;45797;47.466;9.486;2024-02-21T06:38:11;96512.25;;;6.10;78.96
37892;BME280;45797;47.466;9.486;2024-02-21T06:43:38;96511.00;;;6.19;79.19
37892;BME280;45797;47.466;9.486;2024-02-21T06:49:07;96499.44;;;6.26;78.72
37892;BME280;45797;47.466;9.486;2024-02-21T06:54:28;96492.94;;;6.36;78.73
37892;BME280;45797;47.466;9.486;2024-02-21T07:00:08;96491.78;;;6.42;78.77
37892;BME280;45797;47.466;9.486;2024-02-21T07:05:29;96475.16;;;6.46;78.71
37892;BME280;45797;47.466;9.486;2024-02-21T07:10:55;96475.91;;;6.48;78.80
37892;BME280;45797;47.466;9.486;2024-02-21T07:16:17;96479.78;;;6.58;78.97
37892;BME280;45797;47.466;9.486;2024-02-21T07:21:40;96465.88;;;6.59;79.13
37892;BME280;45797;47.466;9.486;2024-02-21T07:27:16;96477.19;;;6.58;79.07
37892;BME280;45797;47.466;9.486;2024-02-21T07:32:39;96484.94;;;6.59;79.11
37892;BME280;45797;47.466;9.486;2024-02-21T07:38:00;96488.28;;;6.62;79.16
37892;BME280;45797;47.466;9.486;2024-02-21T07:43:20;96498.78;;;6.60;79.08
37892;BME280;45797;47.466;9.486;2024-02-21T07:48:47;96486.69;;;6.59;78.77
37892;BME280;45797;47.466;9.486;2024-02-21T07:54:33;96463.34;;;6.57;79.08
37892;BME280;45797;47.466;9.486;2024-02-21T07:59:54;96441.59;;;6.58;79.06
37892;BME280;45797;47.466;9.486;2024-02-21T08:05:34;96455.38;;;6.61;79.13
37892;BME280;45797;47.466;9.486;2024-02-21T08:11:01;96472.41;;;6.68;78.84
37892;BME280;45797;47.466;9.486;2024-02-21T08:16:26;96464.19;;;6.77;78.71
37892;BME280;45797;47.466;9.486;2024-02-21T08:21:50;96465.28;;;6.90;78.81
37892;BME280;45797;47.466;9.486;2024-02-21T08:27:12;96441.06;;;7.07;78.17
37892;BME280;45797;47.466;9.486;2024-02-21T08:32:34;96441.88;;;7.26;78.43
37892;BME280;45797;47.466;9.486;2024-02-21T08:38:12;96433.91;;;7.47;77.83
37892;BME280;45797;47.466;9.486;2024-02-21T08:43:41;96431.09;;;7.68;77.57
37892;BME280;45797;47.466;9.486;2024-02-21T08:49:01;96430.56;;;7.79;77.34
37892;BME280;45797;47.466;9.486;2024-02-21T08:54:23;96442.13;;;7.91;76.90
37892;BME280;45797;47.466;9.486;2024-02-21T08:59:50;96456.38;;;8.01;77.00
37892;BME280;45797;47.466;9.486;2024-02-21T09:05:11;96452.38;;;8.11;76.65
37892;BME280;45797;47.466;9.486;2024-02-21T09:10:33;96451.81;;;8.22;76.78
37892;BME280;45797;47.466;9.486;2024-02-21T09:15:54;96444.66;;;8.43;76.44
37892;BME280;45797;47.466;9.486;2024-02-21T09:21:26;96436.47;;;8.66;75.99
37892;BME280;45797;47.466;9.486;2024-02-21T09:26:48;96428.38;;;8.86;75.05
37892;BME280;45797;47.466;9.486;2024-02-21T09:32:12;96422.03;;;9.06;75.34
37892;BME280;45797;47.466;9.486;2024-02-21T09:37:38;96425.06;;;9.14;74.54
37892;BME280;45797;47.466;9.486;2024-02-21T09:43:17;96427.91;;;9.26;74.37
37892;BME280;45797;47.466;9.486;2024-02-21T09:54:17;96401.31;;;9.49;74.09
37892;BME280;45797;47.466;9.486;2024-02-21T09:59:39;96396.66;;;9.54;73.82
37892;BME280;45797;47.466;9.486;2024-02-21T10:05:03;96399.25;;;9.54;73.86
37892;BME280;45797;47.466;9.486;2024-02-21T10:10:25;96394.22;;;9.51;73.67
37892;BME280;45797;47.466;9.486;2024-02-21T10:16:22;96397.78;;;9.50;74.27
37892;BME280;45797;47.466;9.486;2024-02-21T10:22:04;96392.16;;;9.56;73.93
37892;BME280;45797;47.466;9.486;2024-02-21T10:27:25;96387.25;;;9.66;73.73
37892;BME280;45797;47.466;9.486;2024-02-21T10:32:53;96389.78;;;9.67;73.77
37892;BME280;45797;47.466;9.486;2024-02-21T10:38:30;96385.03;;;9.74;73.50
37892;BME280;45797;47.466;9.486;2024-02-21T10:43:53;96372.72;;;9.76;73.47
37892;BME280;45797;47.466;9.486;2024-02-21T10:49:24;96352.97;;;9.85;73.27
37892;BME280;45797;47.466;9.486;2024-02-21T10:54:56;96344.31;;;10.13;72.90
37892;BME280;45797;47.466;9.486;2024-02-21T11:00:23;96336.28;;;10.30;72.17
37892;BME280;45797;47.466;9.486;2024-02-21T11:05:51;96321.78;;;10.53;72.22
37892;BME280;45797;47.466;9.486;2024-02-21T11:11:37;96314.00;;;10.78;71.65
37892;BME280;45797;47.466;9.486;2024-02-21T11:17:01;96298.34;;;10.91;71.37
37892;BME280;45797;47.466;9.486;2024-02-21T11:22:41;96287.94;;;10.90;71.51
37892;BME280;45797;47.466;9.486;2024-02-21T11:28:15;96270.88;;;10.97;71.50
37892;BME280;45797;47.466;9.486;2024-02-21T11:33:47;96251.31;;;11.15;71.10
37892;BME280;45797;47.466;9.486;2024-02-21T11:39:09;96238.03;;;11.31;70.81
37892;BME280;45797;47.466;9.486;2024-02-21T11:44:31;96226.69;;;11.43;70.47
37892;BME280;45797;47.466;9.486;2024-02-21T11:50:01;96213.47;;;11.57;70.45
37892;BME280;45797;47.466;9.486;2024-02-21T11:55:28;96218.69;;;11.70;70.03
37892;BME280;45797;47.466;9.486;2024-02-21T12:00:52;96203.25;;;11.78;69.89
37892;BME280;45797;47.466;9.486;2024-02-21T12:06:12;96197.28;;;11.89;69.91
37892;BME280;45797;47.466;9.486;2024-02-21T12:11:34;96189.19;;;11.92;69.49
37892;BME280;45797;47.466;9.486;2024-02-21T12:16:57;96178.31;;;11.85;69.52
37892;BME280;45797;47.466;9.486;2024-02-21T12:22:19;96167.16;;;11.82;69.61
37892;BME280;45797;47.466;9.486;2024-02-21T12:27:42;96151.59;;;11.91;69.38
37892;BME280;45797;47.466;9.486;2024-02-21T12:33:05;96143.19;;;11.99;68.83
37892;BME280;45797;47.466;9.486;2024-02-21T12:38:35;96124.03;;;12.10;68.19
37892;BME280;45797;47.466;9.486;2024-02-21T12:43:58;96117.31;;;12.29;68.58
37892;BME280;45797;47.466;9.486;2024-02-21T12:49:18;96099.84;;;12.52;67.69
37892;BME280;45797;47.466;9.486;2024-02-21T12:54:39;96094.88;;;12.72;67.44
37892;BME280;45797;47.466;9.486;2024-02-21T13:00:06;96087.03;;;12.83;66.59
37892;BME280;45797;47.466;9.486;2024-02-21T13:05:38;96086.19;;;13.05;65.84
37892;BME280;45797;47.466;9.486;2024-02-21T13:11:00;96078.25;;;13.29;65.90
37892;BME280;45797;47.466;9.486;2024-02-21T13:16:21;96064.50;;;13.36;64.74
37892;BME280;45797;47.466;9.486;2024-02-21T13:21:45;96044.88;;;13.29;64.97
37892;BME280;45797;47.466;9.486;2024-02-21T13:27:06;96035.06;;;13.42;64.36
37892;BME280;45797;47.466;9.486;2024-02-21T13:32:27;96019.84;;;13.57;63.68
37892;BME280;45797;47.466;9.486;2024-02-21T13:37:57;96012.16;;;13.65;63.47
37892;BME280;45797;47.466;9.486;2024-02-21T13:43:27;95998.38;;;13.73;63.39
37892;BME280;45797;47.466;9.486;2024-02-21T13:49:04;95994.00;;;13.94;62.86
37892;BME280;45797;47.466;9.486;2024-02-21T13:54:33;95971.34;;;14.03;62.62
37892;BME280;45797;47.466;9.486;2024-02-21T13:59:55;95955.75;;;14.00;62.25
37892;BME280;45797;47.466;9.486;2024-02-21T14:05:15;95939.66;;;14.14;62.01
37892;BME280;45797;47.466;9.486;2024-02-21T14:10:36;95920.88;;;14.28;61.84
37892;BME280;45797;47.466;9.486;2024-02-21T14:16:11;95928.09;;;14.47;61.85
37892;BME280;45797;47.466;9.486;2024-02-21T14:21:36;95920.63;;;14.52;60.79
37892;BME280;45797;47.466;9.486;2024-02-21T14:27:01;95912.59;;;14.54;61.23
37892;BME280;45797;47.466;9.486;2024-02-21T14:32:43;95895.63;;;14.47;61.11
37892;BME280;45797;47.466;9.486;2024-02-21T14:38:04;95897.56;;;14.45;60.88
37892;BME280;45797;47.466;9.486;2024-02-21T14:43:25;95891.56;;;14.43;60.45
37892;BME280;45797;47.466;9.486;2024-02-21T14:48:57;95891.69;;;14.20;60.89
37892;BME280;45797;47.466;9.486;2024-02-21T14:54:18;95884.28;;;14.05;61.15
37892;BME280;45797;47.466;9.486;2024-02-21T14:59:40;95870.47;;;13.91;61.34
37892;BME280;45797;47.466;9.486;2024-02-21T15:05:01;95872.03;;;13.94;60.94
37892;BME280;45797;47.466;9.486;2024-02-21T15:10:21;95854.75;;;13.80;61.27
37892;BME280;45797;47.466;9.486;2024-02-21T15:16:01;95861.47;;;13.73;61.11
37892;BME280;45797;47.466;9.486;2024-02-21T15:21:28;95864.63;;;13.46;61.06
37892;BME280;45797;47.466;9.486;2024-02-21T15:26:51;95862.19;;;13.22;61.58
37892;BME280;45797;47.466;9.486;2024-02-21T15:32:12;95872.09;;;13.07;61.84
37892;BME280;45797;47.466;9.486;2024-02-21T15:37:35;95869.03;;;13.02;61.79
37892;BME280;45797;47.466;9.486;2024-02-21T15:42:56;95862.13;;;12.90;61.63
37892;BME280;45797;47.466;9.486;2024-02-21T15:48:25;95855.69;;;12.83;61.78
37892;BME280;45797;47.466;9.486;2024-02-21T15:53:46;95855.13;;;12.79;62.04
37892;BME280;45797;47.466;9.486;2024-02-21T15:59:07;95851.16;;;12.74;62.62
37892;BME280;45797;47.466;9.486;2024-02-21T16:04:29;95853.56;;;12.66;63.52
37892;BME280;45797;47.466;9.486;2024-02-21T16:09:50;95848.69;;;12.50;63.24
37892;BME280;45797;47.466;9.486;2024-02-21T16:15:12;95841.19;;;12.34;63.42
37892;BME280;45797;47.466;9.486;2024-02-21T16:20:44;95829.38;;;12.17;63.45
37892;BME280;45797;47.466;9.486;2024-02-21T16:26:06;95823.03;;;12.09;64.12
37892;BME280;45797;47.466;9.486;2024-02-21T16:31:35;95810.63;;;11.99;64.70
37892;BME280;45797;47.466;9.486;2024-02-21T16:37:00;95796.41;;;11.91;65.22
37892;BME280;45797;47.466;9.486;2024-02-21T16:42:21;95792.72;;;11.82;65.91
37892;BME280;45797;47.466;9.486;2024-02-21T16:47:41;95795.78;;;11.76;65.69
37892;BME280;45797;47.466;9.486;2024-02-21T16:53:11;95788.63;;;11.67;65.67
37892;BME280;45797;47.466;9.486;2024-02-21T16:58:33;95778.72;;;11.59;66.07
37892;BME280;45797;47.466;9.486;2024-02-21T17:03:58;95767.59;;;11.56;66.69
37892;BME280;45797;47.466;9.486;2024-02-21T17:09:22;95765.22;;;11.53;66.87
37892;BME280;45797;47.466;9.486;2024-02-21T17:14:42;95749.22;;;11.44;66.90
37892;BME280;45797;47.466;9.486;2024-02-21T17:20:04;95750.75;;;11.36;67.80
37892;BME280;45797;47.466;9.486;2024-02-21T17:25:31;95752.28;;;11.27;67.67
37892;BME280;45797;47.466;9.486;2024-02-21T17:30:54;95741.31;;;11.22;67.74
37892;BME280;45797;47.466;9.486;2024-02-21T17:36:15;95737.28;;;11.18;68.05
37892;BME280;45797;47.466;9.486;2024-02-21T17:41:37;95741.91;;;11.14;68.56
37892;BME280;45797;47.466;9.486;2024-02-21T17:46:57;95736.78;;;11.13;68.48
37892;BME280;45797;47.466;9.486;2024-02-21T17:52:28;95749.50;;;11.06;68.28
37892;BME280;45797;47.466;9.486;2024-02-21T17:57:50;95726.03;;;11.05;68.09
37892;BME280;45797;47.466;9.486;2024-02-21T18:03:12;95729.59;;;11.04;68.60
37892;BME280;45797;47.466;9.486;2024-02-21T18:08:33;95711.13;;;11.05;68.44
37892;BME280;45797;47.466;9.486;2024-02-21T18:13:54;95693.75;;;11.04;68.92
37892;BME280;45797;47.466;9.486;2024-02-21T18:19:17;95695.66;;;11.02;68.94
37892;BME280;45797;47.466;9.486;2024-02-21T18:24:39;95696.81;;;10.98;69.22
37892;BME280;45797;47.466;9.486;2024-02-21T18:30:00;95681.09;;;10.98;68.97
37892;BME280;45797;47.466;9.486;2024-02-21T18:35:20;95677.88;;;10.95;69.24
37892;BME280;45797;47.466;9.486;2024-02-21T18:40:43;95664.66;;;10.96;69.48
37892;BME280;45797;47.466;9.486;2024-02-21T18:46:04;95647.16;;;10.97;69.34
37892;BME280;45797;47.466;9.486;2024-02-21T18:51:35;95637.63;;;10.96;69.31
37892;BME280;45797;47.466;9.486;2024-02-21T18:56:58;95645.25;;;10.99;69.46
37892;BME280;45797;47.466;9.486;2024-02-21T19:02:20;95654.78;;;11.00;70.11
37892;BME280;45797;47.466;9.486;2024-02-21T19:07:41;95659.28;;;10.98;69.03
37892;BME280;45797;47.466;9.486;2024-02-21T19:13:06;95657.50;;;10.98;69.69
37892;BME280;45797;47.466;9.486;2024-02-21T19:18:29;95647.03;;;10.98;69.75
37892;BME280;45797;47.466;9.486;2024-02-21T19:23:49;95626.19;;;10.97;69.94
37892;BME280;45797;47.466;9.486;2024-02-21T19:29:13;95603.56;;;10.96;69.76
37892;BME280;45797;47.466;9.486;2024-02-21T19:34:33;95600.09;;;10.95;69.98
37892;BME280;45797;47.466;9.486;2024-02-21T19:39:56;95599.97;;;10.97;70.01
37892;BME280;45797;47.466;9.486;2024-02-21T19:45:26;95600.22;;;10.94;70.00
37892;BME280;45797;47.466;9.486;2024-02-21T19:50:50;95597.59;;;10.94;70.19
37892;BME280;45797;47.466;9.486;2024-02-21T19:56:11;95588.91;;;10.93;70.54
37892;BME280;45797;47.466;9.486;2024-02-21T20:01:34;95581.16;;;10.92;70.12
37892;BME280;45797;47.466;9.486;2024-02-21T20:07:06;95592.59;;;10.91;70.76
37892;BME280;45797;47.466;9.486;2024-02-21T20:12:27;95580.34;;;10.91;70.69
37892;BME280;45797;47.466;9.486;2024-02-21T20:17:48;95575.19;;;10.90;70.82
37892;BME280;45797;47.466;9.486;2024-02-21T20:23:08;95568.28;;;10.88;70.67
37892;BME280;45797;47.466;9.486;2024-02-21T20:28:37;95559.25;;;10.93;70.68
37892;BME280;45797;47.466;9.486;2024-02-21T20:34:00;95553.31;;;10.91;70.77
37892;BME280;45797;47.466;9.486;2024-02-21T20:39:26;95529.09;;;10.87;70.74
37892;BME280;45797;47.466;9.486;2024-02-21T20:44:56;95526.38;;;10.88;70.94
37892;BME280;45797;47.466;9.486;2024-02-21T20:50:17;95525.31;;;10.91;70.52
37892;BME280;45797;47.466;9.486;2024-02-21T20:55:40;95506.03;;;10.92;70.85
37892;BME280;45797;47.466;9.486;2024-02-21T21:01:12;95488.63;;;10.91;71.13
37892;BME280;45797;47.466;9.486;2024-02-21T21:06:34;95476.00;;;10.96;71.19
37892;BME280;45797;47.466;9.486;2024-02-21T21:11:56;95464.78;;;11.05;70.89
37892;BME280;45797;47.466;9.486;2024-02-21T21:17:17;95463.69;;;11.19;69.75
37892;BME280;45797;47.466;9.486;2024-02-21T21:22:47;95465.59;;;11.28;69.68
37892;BME280;45797;47.466;9.486;2024-02-21T21:28:07;95489.69;;;11.11;70.27
37892;BME280;45797;47.466;9.486;2024-02-21T21:33:30;95500.66;;;10.94;70.61
37892;BME280;45797;47.466;9.486;2024-02-21T21:39:08;95486.59;;;10.83;70.69
37892;BME280;45797;47.466;9.486;2024-02-21T21:44:30;95464.69;;;10.84;70.63
37892;BME280;45797;47.466;9.486;2024-02-21T21:49:51;95449.94;;;10.83;70.93
37892;BME280;45797;47.466;9.486;2024-02-21T21:55:12;95451.59;;;10.84;70.67
37892;BME280;45797;47.466;9.486;2024-02-21T22:01:01;95416.81;;;10.82;70.85
37892;BME280;45797;47.466;9.486;2024-02-21T22:06:22;95407.88;;;10.85;71.21
37892;BME280;45797;47.466;9.486;2024-02-21T22:11:51;95397.28;;;10.86;71.12
37892;BME280;45797;47.466;9.486;2024-02-21T22:17:20;95389.16;;;10.90;71.41
37892;BME280;45797;47.466;9.486;2024-02-21T22:23:07;95373.34;;;10.91;71.27
37892;BME280;45797;47.466;9.486;2024-02-21T22:28:30;95360.56;;;10.98;71.07
37892;BME280;45797;47.466;9.486;2024-02-21T22:33:51;95354.72;;;11.05;70.43
37892;BME280;45797;47.466;9.486;2024-02-21T22:44:54;95334.84;;;11.03;70.85
37892;BME280;45797;47.466;9.486;2024-02-21T22:50:17;95334.56;;;11.06;71.06
37892;BME280;45797;47.466;9.486;2024-02-21T22:55:37;95320.72;;;11.15;70.85
37892;BME280;45797;47.466;9.486;2024-02-21T23:00:59;95316.84;;;11.30;70.20
37892;BME280;45797;47.466;9.486;2024-02-21T23:06:28;95302.78;;;11.31;69.91
37892;BME280;45797;47.466;9.486;2024-02-21T23:11:49;95313.81;;;11.35;70.05
37892;BME280;45797;47.466;9.486;2024-02-21T23:17:11;95288.13;;;11.50;70.00
37892;BME280;45797;47.466;9.486;2024-02-21T23:22:34;95281.19;;;11.69;69.38
37892;BME280;45797;47.466;9.486;2024-02-21T23:28:04;95277.69;;;11.80;69.35
37892;BME280;45797;47.466;9.486;2024-02-21T23:33:24;95285.75;;;11.88;68.93
37892;BME280;45797;47.466;9.486;2024-02-21T23:38:54;95271.13;;;11.95;68.36
37892;BME280;45797;47.466;9.486;2024-02-21T23:44:24;95262.25;;;11.87;69.08
37892;BME280;45797;47.466;9.486;2024-02-21T23:49:56;95245.94;;;11.83;69.09
37892;BME280;45797;47.466;9.486;2024-02-21T23:55:21;95242.94;;;11.88;68.55
